Weather at Thompson Airport

Public forecast

Using degrees Celsius for public forecast. Weather courtesy of forecast.io.

Current aviation weather report (METAR) for Thompson Airport

Retrieved 2021/01/17 23:00 UTC (7 minutes ago):

CYTH 172300Z 02004KT 15SM FEW016 BKN140 M23/M26 A3007 RMK SF2AC5 SLP215

Aviation forecast (TAF) for Thompson Airport

Retrieved 2021/01/17 19:42 UTC (3 hours ago):

TAF CYTH 171838Z 1719/1807 05005KT P6SM BKN190 TEMPO 1721/1803 6SM IC BKN020 RMK NXT FCST BY 180100Z